Airfield :
LOGIN :

Register | Disclaimer

   EN    FR    IT 

 










Legend :    VFR   Marginal VFR   IFR   Intensive IFR   Very Intensive IFR
Visi :
Ceiling :
>= 8 km
>= 3000ft
5 to 8 km
1000 to 3000 ft
1500m to 5 km
500 to 1000 ft
800 to 1500m
200 to 500 ft
< 800m
< 200 ft
Symbols :   Thunderstorms  Fog  Heavy snow  Heavy precipitations  Wind > 20 kt
SIGMETs :     Misc.  Thunderstorms  Icing  Turbulence  Mountain Waves  Volcanic Ashes







- Airport Elevation : 257 ft
- IATA code : MAN
- Download approach charts


EGCC - Manchester

CURRENT METAR :
  • 160150Z AUTO 20007KT 6000 -RA FEW012/// SCT045/// //////TCU 17/16 Q1009

EXPIRED METARs :
  • 160120Z AUTO 21005KT 9999 -RA BKN012 BKN026 17/16 Q1009 TEMPO RA
  • 160050Z AUTO 21007KT 180V240 9999 BKN012/// OVC018/// //////TCU 17/16 Q1010 TEMPO RA
  • 160020Z AUTO 20006KT 150V230 9999 BKN011/// //////TCU 18/16 Q1010 TEMPO RA
  • 152350Z AUTO 20008KT 9999 BKN011 OVC034 18/16 Q1010 TEMPO RA
  • 152320Z AUTO 20009KT 160V230 9999 BKN013 18/16 Q1010 TEMPO RA

TAF TAF EGCC
Valid from the 16 at 00:00 until the 17 at 06:00 UTC


152257Z 1600/1706 19006KT 9999 FEW015 SCT040
TEMPO 1600/1606 6000 RA BKN014
PROB30
TEMPO 1600/1603 4000 +RA
BECMG 1609/1612 26012KT
PROB30
TEMPO 1612/1618 27015G25KT 7000 SHRA
BECMG 1618/1621 20005KT
ATIS : +44 161 499 2324
No reported NOTAMs for that airfield.



MET'MAP, your aeronautical weather chart ! - Copyright ORBIFLY December 2007 - Disclaimer

ORBIFLY MET'MAP TEAM :

Programming & Development : Alexandra Zaïnal
Concept & Development : Baudouin d'Aumeries
Co-Development & Prog : Marc-Olivier Méhu
Technical & hardware support : Manuel Goepfert

Contact : metmap@orbifly.com




SOURCES & CREDITS :

   NOAA